createdAt,value
2023-05-17T00:01:51.019Z,99.90
2023-05-17T00:04:20.485Z,99.90
2023-05-17T00:06:48.666Z,99.90
2023-05-17T00:09:16.728Z,99.90
2023-05-17T00:11:44.854Z,99.90
2023-05-17T00:14:12.985Z,99.90
2023-05-17T00:16:41.117Z,99.90
2023-05-17T00:19:09.569Z,99.90
2023-05-17T00:21:39.258Z,99.90
2023-05-17T00:24:07.884Z,99.90
2023-05-17T00:26:36.637Z,99.90
2023-05-17T00:29:04.727Z,99.90
2023-05-17T00:31:32.788Z,99.90
2023-05-17T00:34:00.962Z,99.90
2023-05-17T00:36:28.993Z,99.90
2023-05-17T00:38:58.869Z,99.90
2023-05-17T00:41:27.109Z,99.90
2023-05-17T00:43:55.185Z,99.90
2023-05-17T00:46:23.222Z,99.90
2023-05-17T00:48:51.525Z,99.90
2023-05-17T00:51:20.854Z,99.90
2023-05-17T00:53:49.100Z,99.90
2023-05-17T00:56:18.830Z,99.90
2023-05-17T00:58:47.081Z,99.90
2023-05-17T01:01:15.478Z,99.90
2023-05-17T01:03:43.949Z,99.90
2023-05-17T01:06:12.092Z,99.90
2023-05-17T01:08:40.203Z,99.90
2023-05-17T01:11:19.616Z,99.90
2023-05-17T01:13:56.542Z,99.90
2023-05-17T01:16:31.052Z,99.90
2023-05-17T01:19:09.277Z,99.90
2023-05-17T01:21:47.923Z,99.90
2023-05-17T01:24:28.110Z,99.90
2023-05-17T01:27:00.323Z,99.90
2023-05-17T01:29:31.004Z,99.90
2023-05-17T01:32:00.761Z,99.90
2023-05-17T01:34:30.017Z,99.90
2023-05-17T01:36:58.616Z,99.90
2023-05-17T01:39:27.699Z,99.90
2023-05-17T01:42:06.179Z,99.90
2023-05-17T01:44:41.826Z,99.90
2023-05-17T01:47:15.899Z,99.90
2023-05-17T01:49:50.049Z,99.90
2023-05-17T01:52:25.370Z,99.90
2023-05-17T01:55:07.978Z,99.90
2023-05-17T01:57:38.728Z,99.90
2023-05-17T02:00:09.327Z,99.90
2023-05-17T02:02:37.873Z,99.90
2023-05-17T02:05:06.764Z,99.90
2023-05-17T02:07:34.881Z,99.90
2023-05-17T02:10:03.724Z,99.90
2023-05-17T02:12:31.737Z,99.90
2023-05-17T02:15:01.163Z,99.90
2023-05-17T02:17:29.407Z,99.90
2023-05-17T02:19:57.546Z,99.90
2023-05-17T02:22:25.578Z,99.90
2023-05-17T02:24:53.604Z,99.90
2023-05-17T02:27:22.589Z,99.90
2023-05-17T02:29:50.657Z,99.90
2023-05-17T02:32:20.103Z,99.90
2023-05-17T02:34:48.224Z,99.90
2023-05-17T02:37:16.282Z,99.90
2023-05-17T02:39:44.342Z,99.90
2023-05-17T02:42:12.425Z,99.90
2023-05-17T02:44:41.015Z,99.90
2023-05-17T02:47:09.144Z,99.90
2023-05-17T02:49:38.594Z,99.90
2023-05-17T02:52:07.088Z,99.90
2023-05-17T02:54:35.096Z,99.90
2023-05-17T02:57:03.739Z,99.90
2023-05-17T02:59:31.748Z,99.90
2023-05-17T03:01:59.805Z,99.90
2023-05-17T03:04:27.982Z,99.90
2023-05-17T03:06:57.584Z,99.90
2023-05-17T03:09:25.644Z,99.90
2023-05-17T03:11:53.669Z,99.90
2023-05-17T03:14:21.701Z,99.90
2023-05-17T03:16:49.765Z,99.90
2023-05-17T03:19:17.982Z,99.90
2023-05-17T03:21:46.127Z,99.90
2023-05-17T03:24:15.675Z,99.90
2023-05-17T03:26:43.729Z,99.90
2023-05-17T03:29:11.807Z,99.90
2023-05-17T03:31:39.855Z,99.90
2023-05-17T03:34:08.041Z,99.90
2023-05-17T03:36:36.341Z,99.90
2023-05-17T03:39:04.520Z,99.90
2023-05-17T03:41:33.973Z,99.90
2023-05-17T03:44:02.025Z,99.90
2023-05-17T03:46:30.129Z,99.90
2023-05-17T03:48:58.243Z,99.90
2023-05-17T03:51:26.503Z,99.90
2023-05-17T03:54:00.215Z,99.90
2023-05-17T03:56:28.402Z,99.90
2023-05-17T03:58:57.810Z,99.90
2023-05-17T04:01:25.837Z,99.90
2023-05-17T04:03:53.935Z,99.90
2023-05-17T04:06:22.107Z,99.90
2023-05-17T04:08:50.126Z,99.90
2023-05-17T04:11:23.779Z,99.90
2023-05-17T04:13:51.799Z,99.90
2023-05-17T04:16:21.254Z,99.90
2023-05-17T04:18:52.645Z,99.90
2023-05-17T04:21:20.974Z,99.90
2023-05-17T04:23:49.088Z,99.90
2023-05-17T04:26:17.346Z,99.90
2023-05-17T04:28:45.501Z,99.90
2023-05-17T04:31:16.885Z,99.90
2023-05-17T04:33:46.495Z,99.90
2023-05-17T04:36:14.667Z,99.90
2023-05-17T04:38:42.830Z,99.90
2023-05-17T04:41:11.337Z,99.90
2023-05-17T04:43:39.455Z,99.90
2023-05-17T04:46:07.526Z,99.90
2023-05-17T04:48:36.205Z,99.90
2023-05-17T04:51:07.028Z,99.90
2023-05-17T04:53:35.120Z,99.90
2023-05-17T04:56:04.140Z,99.90
2023-05-17T04:58:32.958Z,99.90
2023-05-17T05:01:01.053Z,99.90
2023-05-17T05:03:29.272Z,99.90
2023-05-17T05:05:57.539Z,99.90
2023-05-17T05:08:27.050Z,99.90
2023-05-17T05:10:55.110Z,99.90
2023-05-17T05:13:23.471Z,99.90
2023-05-17T05:15:51.593Z,99.90
2023-05-17T05:18:19.892Z,99.90
2023-05-17T05:20:49.432Z,99.90
2023-05-17T05:23:18.581Z,99.90
2023-05-17T05:25:48.280Z,99.90
2023-05-17T05:28:16.339Z,99.90
2023-05-17T05:30:44.456Z,99.90
2023-05-17T05:33:12.626Z,99.90
2023-05-17T05:35:41.048Z,99.90
2023-05-17T05:38:10.171Z,99.90
2023-05-17T05:40:38.275Z,99.90
2023-05-17T05:43:07.692Z,99.90
2023-05-17T05:45:35.800Z,99.90
2023-05-17T05:48:05.610Z,99.90
2023-05-17T05:50:35.857Z,99.90
2023-05-17T05:53:17.400Z,99.90
2023-05-17T05:55:47.555Z,99.90
2023-05-17T05:58:17.069Z,99.90
2023-05-17T06:00:45.166Z,99.90
2023-05-17T06:03:13.245Z,99.90
2023-05-17T06:05:41.642Z,99.90
2023-05-17T06:08:09.856Z,99.90
2023-05-17T06:10:37.971Z,99.90
2023-05-17T06:13:06.128Z,99.90
2023-05-17T06:15:35.608Z,99.90
2023-05-17T06:18:03.812Z,99.90
2023-05-17T06:20:32.123Z,99.90
2023-05-17T06:23:00.418Z,99.90
2023-05-17T06:25:28.506Z,99.90
2023-05-17T06:27:56.673Z,99.90
2023-05-17T06:30:24.812Z,99.90
2023-05-17T06:32:54.326Z,99.90
2023-05-17T06:35:22.418Z,99.90
2023-05-17T06:37:50.488Z,99.90
2023-05-17T06:40:18.679Z,99.90
2023-05-17T06:42:46.943Z,99.90
2023-05-17T06:45:15.559Z,99.90
2023-05-17T06:47:43.783Z,99.90
2023-05-17T06:50:13.379Z,99.90
2023-05-17T06:52:41.624Z,99.90
2023-05-17T06:55:10.378Z,99.90
2023-05-17T06:57:38.490Z,99.90
2023-05-17T07:00:10.967Z,99.90
2023-05-17T07:02:39.226Z,99.90
2023-05-17T07:05:08.413Z,99.90
2023-05-17T07:07:37.922Z,99.90
2023-05-17T07:10:07.154Z,99.90
2023-05-17T07:12:35.928Z,99.90
2023-05-17T07:15:04.224Z,99.90
2023-05-17T07:17:32.383Z,99.90
2023-05-17T07:20:00.703Z,99.90
2023-05-17T07:22:28.829Z,99.90
2023-05-17T07:24:58.345Z,99.90
2023-05-17T07:27:26.575Z,99.90
2023-05-17T07:29:54.667Z,99.90
2023-05-17T07:32:22.787Z,99.90
2023-05-17T07:34:50.863Z,99.90
2023-05-17T07:37:21.855Z,99.90
2023-05-17T07:39:50.024Z,99.90
2023-05-17T07:42:19.576Z,99.90
2023-05-17T07:44:48.696Z,99.90
2023-05-17T07:47:17.105Z,99.90
2023-05-17T07:49:45.257Z,99.90
2023-05-17T07:52:13.501Z,99.90
2023-05-17T07:54:41.598Z,99.90
2023-05-17T07:57:09.875Z,99.90
2023-05-17T07:59:39.316Z,99.90
2023-05-17T08:02:07.732Z,99.90
2023-05-17T08:04:39.114Z,99.90
2023-05-17T08:07:07.201Z,99.90
2023-05-17T08:09:35.263Z,99.90
2023-05-17T08:12:03.388Z,99.90
2023-05-17T08:14:31.480Z,99.90
2023-05-17T08:17:01.007Z,99.90
2023-05-17T08:19:29.270Z,99.90
2023-05-17T08:21:57.490Z,99.90
2023-05-17T08:24:25.544Z,99.90
2023-05-17T08:26:54.523Z,99.90
2023-05-17T08:29:22.592Z,99.90
2023-05-17T08:31:51.444Z,99.90
2023-05-17T08:34:21.054Z,99.90
2023-05-17T08:36:49.178Z,99.90
2023-05-17T08:39:17.673Z,99.90
2023-05-17T08:41:48.101Z,99.90
2023-05-17T08:44:17.921Z,99.90
2023-05-17T08:46:51.782Z,99.90
2023-05-17T08:49:23.574Z,99.90
2023-05-17T08:51:54.389Z,99.90
2023-05-17T08:54:22.806Z,99.90
2023-05-17T08:56:52.546Z,99.90
2023-05-17T08:59:20.990Z,99.90
2023-05-17T09:01:51.055Z,99.90
2023-05-17T09:04:20.658Z,99.90
2023-05-17T09:06:50.670Z,99.90
2023-05-17T09:09:19.926Z,99.90
2023-05-17T09:11:48.069Z,99.90
2023-05-17T09:14:17.324Z,99.90
2023-05-17T09:16:45.530Z,99.90
2023-05-17T09:19:17.859Z,99.90
2023-05-17T09:21:50.802Z,99.90
2023-05-17T09:24:28.011Z,99.90
2023-05-17T09:27:02.737Z,99.90
2023-05-17T09:29:32.627Z,99.90
2023-05-17T09:32:14.382Z,99.30
2023-05-17T09:34:43.038Z,98.30
2023-05-17T09:37:16.733Z,99.20
2023-05-17T09:39:47.076Z,98.20
2023-05-17T09:42:16.954Z,99.10
2023-05-17T09:44:51.025Z,98.60
2023-05-17T09:47:26.887Z,98.10
2023-05-17T09:49:56.929Z,97.50
2023-05-17T09:52:27.251Z,97.00
2023-05-17T09:54:56.481Z,96.90
2023-05-17T09:57:26.294Z,95.70
2023-05-17T09:59:57.383Z,97.70
2023-05-17T10:02:29.350Z,97.20
2023-05-17T10:04:58.700Z,97.10
2023-05-17T10:07:29.270Z,96.90
2023-05-17T10:09:58.451Z,97.10
2023-05-17T10:12:30.047Z,96.60
2023-05-17T10:15:00.033Z,96.60
2023-05-17T10:17:29.900Z,97.90
2023-05-17T10:19:59.040Z,97.30
2023-05-17T10:22:29.859Z,97.40
2023-05-17T10:24:59.110Z,96.40
2023-05-17T10:27:27.893Z,96.80
2023-05-17T10:29:57.231Z,96.90
2023-05-17T10:32:27.285Z,96.00
2023-05-17T10:35:09.145Z,96.10
2023-05-17T10:37:41.609Z,96.10
2023-05-17T10:40:13.581Z,95.70
2023-05-17T10:42:44.170Z,94.00
2023-05-17T10:45:13.861Z,93.50
2023-05-17T10:47:42.981Z,93.10
2023-05-17T10:50:13.267Z,93.80
2023-05-17T10:52:48.774Z,94.10
2023-05-17T10:55:20.789Z,94.70
2023-05-17T10:58:14.576Z,94.90
2023-05-17T11:00:43.329Z,94.30
2023-05-17T11:03:17.406Z,94.30
2023-05-17T11:06:12.362Z,92.80
2023-05-17T11:09:08.247Z,92.60
2023-05-17T11:11:37.532Z,91.70
2023-05-17T11:14:06.672Z,90.50
2023-05-17T11:16:37.949Z,87.50
2023-05-17T11:19:11.155Z,91.00
2023-05-17T11:21:47.362Z,91.60
2023-05-17T11:24:25.575Z,91.10
2023-05-17T11:26:56.471Z,92.70
2023-05-17T11:29:31.474Z,93.40
2023-05-17T11:31:59.572Z,89.40
2023-05-17T11:34:28.941Z,91.50
2023-05-17T11:36:57.499Z,90.90
2023-05-17T11:39:27.119Z,89.70
2023-05-17T11:41:57.102Z,91.20
2023-05-17T11:44:26.923Z,90.00
2023-05-17T11:47:03.427Z,90.60
2023-05-17T11:49:36.315Z,90.90
2023-05-17T11:52:06.175Z,93.00
2023-05-17T11:54:36.470Z,92.90
2023-05-17T11:57:05.681Z,91.10
2023-05-17T11:59:39.840Z,90.80
2023-05-17T12:02:08.291Z,91.00
2023-05-17T12:04:38.507Z,91.00
2023-05-17T12:07:09.331Z,91.60
2023-05-17T12:09:40.301Z,90.40
2023-05-17T12:12:09.728Z,88.90
2023-05-17T12:14:38.156Z,89.00
2023-05-17T12:17:10.211Z,87.00
2023-05-17T12:19:38.597Z,90.00
2023-05-17T12:22:08.433Z,86.10
2023-05-17T12:24:41.922Z,92.40
2023-05-17T12:27:10.677Z,88.40
2023-05-17T12:29:40.124Z,89.30
2023-05-17T12:32:10.452Z,88.60
2023-05-17T12:34:38.728Z,87.90
2023-05-17T12:37:10.685Z,90.50
2023-05-17T12:39:41.105Z,87.00
2023-05-17T12:42:10.587Z,87.00
2023-05-17T12:44:38.722Z,89.20
2023-05-17T12:47:07.044Z,88.90
2023-05-17T12:49:40.231Z,86.20
2023-05-17T12:52:08.884Z,88.70
2023-05-17T12:54:36.920Z,88.20
2023-05-17T12:57:14.861Z,85.50
2023-05-17T12:59:53.941Z,87.50
2023-05-17T13:02:22.375Z,86.50
2023-05-17T13:04:50.857Z,84.70
2023-05-17T13:07:23.804Z,88.40
2023-05-17T13:09:51.969Z,89.20
2023-05-17T13:12:23.901Z,84.80
2023-05-17T13:14:54.931Z,85.70
2023-05-17T13:17:26.909Z,88.50
2023-05-17T13:19:57.379Z,89.40
2023-05-17T13:22:26.246Z,90.70
2023-05-17T13:24:55.160Z,88.30
2023-05-17T13:27:24.681Z,86.80
2023-05-17T13:29:52.742Z,83.40
2023-05-17T13:32:22.347Z,86.30
2023-05-17T13:34:50.534Z,87.50
2023-05-17T13:37:18.581Z,86.40
2023-05-17T13:39:46.641Z,86.80
2023-05-17T13:42:14.900Z,84.50
2023-05-17T13:44:44.299Z,85.40
2023-05-17T13:47:12.438Z,88.00
2023-05-17T13:49:40.534Z,85.80
2023-05-17T13:52:09.540Z,85.50
2023-05-17T13:54:38.110Z,82.60
2023-05-17T13:57:07.187Z,84.40
2023-05-17T13:59:35.298Z,85.50
2023-05-17T14:02:05.246Z,88.20
2023-05-17T14:04:33.477Z,84.10
2023-05-17T14:07:01.799Z,84.10
2023-05-17T14:09:32.916Z,83.90
2023-05-17T14:12:01.515Z,84.70
2023-05-17T14:14:29.596Z,83.10
2023-05-17T14:16:58.147Z,85.20
2023-05-17T14:19:27.692Z,83.40
2023-05-17T14:21:55.986Z,82.50
2023-05-17T14:24:24.086Z,87.20
2023-05-17T14:26:52.215Z,84.20
2023-05-17T14:29:20.239Z,77.70
2023-05-17T14:31:48.317Z,85.00
2023-05-17T14:34:16.492Z,81.30
2023-05-17T14:36:46.094Z,84.30
2023-05-17T14:39:14.125Z,81.50
2023-05-17T14:41:44.732Z,78.80
2023-05-17T14:44:13.118Z,79.90
2023-05-17T14:46:41.279Z,81.50
2023-05-17T14:49:09.360Z,81.50
2023-05-17T14:51:37.800Z,87.90
2023-05-17T14:54:07.259Z,84.20
2023-05-17T14:56:35.409Z,79.90
2023-05-17T14:59:05.022Z,80.30
2023-05-17T15:01:33.074Z,84.90
2023-05-17T15:04:01.191Z,85.30
2023-05-17T15:06:30.233Z,84.30
2023-05-17T15:08:58.541Z,83.20
2023-05-17T15:11:28.038Z,83.10
2023-05-17T15:13:56.394Z,82.50
2023-05-17T15:16:24.573Z,82.40
2023-05-17T15:18:54.822Z,82.50
2023-05-17T15:21:24.130Z,83.30
2023-05-17T15:23:52.146Z,82.60
2023-05-17T15:26:20.269Z,84.80
2023-05-17T15:28:51.143Z,84.50
2023-05-17T15:31:19.268Z,80.00
2023-05-17T15:33:50.851Z,86.50
2023-05-17T15:36:26.811Z,85.20
2023-05-17T15:38:54.838Z,85.60
2023-05-17T15:41:29.897Z,85.40
2023-05-17T15:43:59.706Z,85.20
2023-05-17T15:46:28.199Z,84.70
2023-05-17T15:48:57.934Z,86.20
2023-05-17T15:51:26.084Z,82.20
2023-05-17T15:53:54.200Z,84.80
2023-05-17T15:56:23.128Z,85.20
2023-05-17T15:58:51.639Z,82.80
2023-05-17T16:01:21.170Z,85.00
2023-05-17T16:03:49.287Z,84.50
2023-05-17T16:06:17.394Z,86.70
2023-05-17T16:08:45.686Z,85.80
2023-05-17T16:11:13.755Z,86.80
2023-05-17T16:13:41.809Z,81.20
2023-05-17T16:16:10.680Z,84.30
2023-05-17T16:18:40.306Z,83.50
2023-05-17T16:21:08.425Z,83.30
2023-05-17T16:23:36.693Z,86.00
2023-05-17T16:26:04.834Z,85.50
2023-05-17T16:28:35.002Z,81.60
2023-05-17T16:31:05.180Z,85.80
2023-05-17T16:33:33.400Z,84.10
2023-05-17T16:36:03.550Z,86.20
2023-05-17T16:38:31.659Z,87.40
2023-05-17T16:41:03.077Z,85.70
2023-05-17T16:43:31.317Z,90.20
2023-05-17T16:45:59.481Z,87.80
2023-05-17T16:48:27.815Z,87.80
2023-05-17T16:50:56.210Z,86.20
2023-05-17T16:53:28.176Z,85.80
2023-05-17T16:55:56.552Z,87.10
2023-05-17T16:58:25.998Z,88.00
2023-05-17T17:00:54.125Z,86.50
2023-05-17T17:03:22.250Z,88.20
2023-05-17T17:05:50.413Z,88.30
2023-05-17T17:08:18.526Z,87.40
2023-05-17T17:10:47.963Z,89.20
2023-05-17T17:13:16.037Z,90.70
2023-05-17T17:15:44.352Z,89.90
2023-05-17T17:18:12.621Z,89.60
2023-05-17T17:20:40.737Z,90.10
2023-05-17T17:23:09.018Z,89.90
2023-05-17T17:25:37.143Z,90.80
2023-05-17T17:28:06.848Z,90.60
2023-05-17T17:30:34.894Z,90.60
2023-05-17T17:33:03.091Z,89.10
2023-05-17T17:35:31.383Z,90.90
2023-05-17T17:37:59.474Z,90.10
2023-05-17T17:40:27.699Z,89.70
2023-05-17T17:42:56.129Z,90.50
2023-05-17T17:45:25.678Z,90.10
2023-05-17T17:47:53.858Z,91.10
2023-05-17T17:50:21.934Z,90.30
2023-05-17T17:52:51.256Z,90.70
2023-05-17T17:55:19.317Z,91.40
2023-05-17T17:57:47.352Z,91.20
2023-05-17T18:00:16.528Z,91.30
2023-05-17T18:02:46.174Z,91.20
2023-05-17T18:05:14.313Z,91.70
2023-05-17T18:07:42.448Z,91.50
2023-05-17T18:10:11.220Z,91.10
2023-05-17T18:12:39.309Z,91.40
2023-05-17T18:15:08.051Z,91.20
2023-05-17T18:17:36.343Z,91.90
2023-05-17T18:20:07.163Z,91.90
2023-05-17T18:22:35.361Z,92.40
2023-05-17T18:25:03.435Z,92.40
2023-05-17T18:27:31.458Z,92.50
2023-05-17T18:29:59.492Z,92.90
2023-05-17T18:32:27.649Z,92.90
2023-05-17T18:34:56.043Z,93.20
2023-05-17T18:37:25.603Z,93.40
2023-05-17T18:39:54.132Z,93.50
2023-05-17T18:42:24.798Z,93.50
2023-05-17T18:44:53.379Z,94.40
2023-05-17T18:47:23.316Z,94.00
2023-05-17T18:49:51.953Z,94.00
2023-05-17T18:52:20.116Z,94.30
2023-05-17T18:54:49.568Z,94.50
2023-05-17T18:57:17.591Z,94.80
2023-05-17T18:59:45.734Z,95.10
2023-05-17T19:02:13.761Z,95.40
2023-05-17T19:04:41.826Z,95.40
2023-05-17T19:07:09.881Z,95.60
2023-05-17T19:09:38.042Z,96.10
2023-05-17T19:12:08.406Z,96.30
2023-05-17T19:14:38.345Z,96.40
2023-05-17T19:17:08.999Z,96.30
2023-05-17T19:19:37.112Z,96.30
2023-05-17T19:22:05.627Z,96.50
2023-05-17T19:24:33.680Z,96.80
2023-05-17T19:27:01.728Z,96.90
2023-05-17T19:29:32.610Z,97.20
2023-05-17T19:32:01.188Z,97.30
2023-05-17T19:34:29.219Z,97.60
2023-05-17T19:36:58.682Z,97.80
2023-05-17T19:39:26.800Z,98.00
2023-05-17T19:41:54.832Z,98.00
2023-05-17T19:44:22.904Z,98.10
2023-05-17T19:46:52.786Z,98.10
2023-05-17T19:49:21.242Z,98.30
2023-05-17T19:51:49.502Z,98.50
2023-05-17T19:54:17.597Z,98.90
2023-05-17T19:56:46.046Z,98.90
2023-05-17T19:59:14.469Z,99.00
2023-05-17T20:01:42.610Z,99.20
2023-05-17T20:04:12.245Z,99.80
2023-05-17T20:06:40.604Z,99.90
2023-05-17T20:09:08.716Z,99.80
2023-05-17T20:11:36.921Z,99.20
2023-05-17T20:14:05.011Z,99.50
2023-05-17T20:16:33.127Z,99.50
2023-05-17T20:19:01.370Z,99.30
2023-05-17T20:21:31.371Z,99.20
2023-05-17T20:24:03.699Z,99.50
2023-05-17T20:26:36.368Z,99.90
2023-05-17T20:29:06.081Z,99.90
2023-05-17T20:31:34.483Z,99.90
2023-05-17T20:34:02.723Z,99.90
2023-05-17T20:36:32.401Z,99.90
2023-05-17T20:39:00.706Z,99.90
2023-05-17T20:41:28.809Z,99.90
2023-05-17T20:43:56.878Z,99.90
2023-05-17T20:46:25.016Z,99.90
2023-05-17T20:48:53.690Z,99.90
2023-05-17T20:51:22.538Z,99.90
2023-05-17T20:53:51.960Z,99.90
2023-05-17T20:56:20.053Z,99.90
2023-05-17T20:58:48.723Z,99.90
2023-05-17T21:01:17.071Z,99.90
2023-05-17T21:03:45.347Z,99.90
2023-05-17T21:06:13.584Z,99.90
2023-05-17T21:08:42.828Z,99.90
2023-05-17T21:11:15.392Z,99.90
2023-05-17T21:13:43.412Z,99.90
2023-05-17T21:16:11.515Z,99.90
2023-05-17T21:18:40.333Z,99.90
2023-05-17T21:21:09.002Z,99.90
2023-05-17T21:23:37.179Z,99.90
2023-05-17T21:26:06.508Z,99.90
2023-05-17T21:28:36.107Z,99.90
2023-05-17T21:31:05.110Z,99.90
2023-05-17T21:33:34.277Z,99.90
2023-05-17T21:36:02.317Z,99.90
2023-05-17T21:38:30.626Z,99.90
2023-05-17T21:40:58.692Z,99.90
2023-05-17T21:43:26.746Z,99.90
2023-05-17T21:45:56.128Z,99.90
2023-05-17T21:48:24.196Z,99.90
2023-05-17T21:50:53.609Z,99.90
2023-05-17T21:53:21.734Z,99.90
2023-05-17T21:56:01.480Z,99.90
2023-05-17T21:58:30.997Z,99.90
2023-05-17T22:01:00.576Z,99.90
2023-05-17T22:03:28.732Z,99.90
2023-05-17T22:05:56.851Z,99.90
2023-05-17T22:08:25.042Z,99.90
2023-05-17T22:10:54.450Z,99.90
2023-05-17T22:13:26.221Z,99.90
2023-05-17T22:15:57.068Z,99.90
2023-05-17T22:18:31.944Z,99.90
2023-05-17T22:21:00.280Z,99.90
2023-05-17T22:23:28.892Z,99.90
2023-05-17T22:26:00.217Z,99.90
2023-05-17T22:28:28.476Z,99.90
2023-05-17T22:30:57.059Z,99.90
2023-05-17T22:33:29.641Z,99.90
2023-05-17T22:35:59.005Z,99.90
2023-05-17T22:38:27.125Z,99.90
2023-05-17T22:40:55.633Z,99.90
2023-05-17T22:43:25.853Z,99.90
2023-05-17T22:45:53.903Z,99.90
2023-05-17T22:48:21.932Z,99.90
2023-05-17T22:50:54.559Z,99.90
2023-05-17T22:53:22.689Z,99.90
2023-05-17T22:55:50.799Z,99.90
2023-05-17T22:58:19.218Z,99.90
2023-05-17T23:00:51.009Z,99.90
2023-05-17T23:03:19.401Z,99.90
2023-05-17T23:05:47.419Z,99.90
2023-05-17T23:08:17.166Z,99.90
2023-05-17T23:10:45.746Z,99.90
2023-05-17T23:13:14.068Z,99.90
2023-05-17T23:15:46.765Z,99.90
2023-05-17T23:18:16.039Z,99.90
2023-05-17T23:20:44.114Z,99.90
2023-05-17T23:23:13.328Z,99.90
2023-05-17T23:25:44.900Z,99.90
2023-05-17T23:28:14.497Z,99.90
2023-05-17T23:30:44.520Z,99.90
2023-05-17T23:33:12.660Z,99.90
2023-05-17T23:35:41.053Z,99.90
2023-05-17T23:38:09.087Z,99.90
2023-05-17T23:40:37.590Z,99.90
2023-05-17T23:43:08.675Z,99.90
2023-05-17T23:45:37.114Z,99.90
2023-05-17T23:48:05.332Z,99.90
2023-05-17T23:50:33.428Z,99.90
2023-05-17T23:53:03.332Z,99.90
2023-05-17T23:55:31.410Z,99.90
2023-05-17T23:57:59.536Z,99.90
